sensor_id;sensor_type;location;lat;lon;timestamp;P1;durP1;ratioP1;P2;durP2;ratioP2
67595;SDS011;54410;48.694;8.934;2023-02-15T00:01:16;39.17;;;19.20;;
67595;SDS011;54410;48.694;8.934;2023-02-15T00:03:42;35.17;;;18.13;;
67595;SDS011;54410;48.694;8.934;2023-02-15T00:06:08;36.53;;;19.03;;
67595;SDS011;54410;48.694;8.934;2023-02-15T00:08:34;36.43;;;18.77;;
67595;SDS011;54410;48.694;8.934;2023-02-15T00:11:04;34.97;;;18.07;;
67595;SDS011;54410;48.694;8.934;2023-02-15T00:13:30;32.80;;;18.30;;
67595;SDS011;54410;48.694;8.934;2023-02-15T00:16:03;34.23;;;17.07;;
67595;SDS011;54410;48.694;8.934;2023-02-15T00:18:29;36.47;;;18.10;;
67595;SDS011;54410;48.694;8.934;2023-02-15T00:20:55;34.87;;;17.87;;
67595;SDS011;54410;48.694;8.934;2023-02-15T00:23:21;36.90;;;19.23;;
67595;SDS011;54410;48.694;8.934;2023-02-15T00:25:47;37.07;;;18.03;;
67595;SDS011;54410;48.694;8.934;2023-02-15T00:28:13;32.80;;;19.10;;
67595;SDS011;54410;48.694;8.934;2023-02-15T00:30:39;37.67;;;19.10;;
67595;SDS011;54410;48.694;8.934;2023-02-15T00:33:05;33.60;;;18.67;;
67595;SDS011;54410;48.694;8.934;2023-02-15T00:35:31;37.40;;;17.90;;
67595;SDS011;54410;48.694;8.934;2023-02-15T00:37:57;36.87;;;18.17;;
67595;SDS011;54410;48.694;8.934;2023-02-15T00:40:23;33.80;;;18.43;;
67595;SDS011;54410;48.694;8.934;2023-02-15T00:42:49;32.30;;;17.17;;
67595;SDS011;54410;48.694;8.934;2023-02-15T00:45:15;35.00;;;17.80;;
67595;SDS011;54410;48.694;8.934;2023-02-15T00:47:41;39.67;;;18.23;;
67595;SDS011;54410;48.694;8.934;2023-02-15T00:50:07;30.63;;;17.33;;
67595;SDS011;54410;48.694;8.934;2023-02-15T00:52:32;31.77;;;16.17;;
67595;SDS011;54410;48.694;8.934;2023-02-15T00:54:58;37.87;;;17.37;;
67595;SDS011;54410;48.694;8.934;2023-02-15T00:57:24;31.60;;;17.47;;
67595;SDS011;54410;48.694;8.934;2023-02-15T00:59:50;31.67;;;17.47;;
67595;SDS011;54410;48.694;8.934;2023-02-15T01:02:16;32.43;;;17.40;;
67595;SDS011;54410;48.694;8.934;2023-02-15T01:04:42;32.60;;;17.73;;
67595;SDS011;54410;48.694;8.934;2023-02-15T01:07:08;35.63;;;16.47;;
67595;SDS011;54410;48.694;8.934;2023-02-15T01:09:34;36.03;;;17.33;;
67595;SDS011;54410;48.694;8.934;2023-02-15T01:12:00;33.80;;;18.27;;
67595;SDS011;54410;48.694;8.934;2023-02-15T01:14:26;34.60;;;17.37;;
67595;SDS011;54410;48.694;8.934;2023-02-15T01:16:52;35.07;;;18.30;;
67595;SDS011;54410;48.694;8.934;2023-02-15T01:19:18;34.10;;;17.23;;
67595;SDS011;54410;48.694;8.934;2023-02-15T01:21:44;30.90;;;15.53;;
67595;SDS011;54410;48.694;8.934;2023-02-15T01:24:11;30.87;;;17.23;;
67595;SDS011;54410;48.694;8.934;2023-02-15T01:26:37;32.07;;;16.27;;
67595;SDS011;54410;48.694;8.934;2023-02-15T01:29:03;32.57;;;17.10;;
67595;SDS011;54410;48.694;8.934;2023-02-15T01:31:29;28.67;;;16.47;;
67595;SDS011;54410;48.694;8.934;2023-02-15T01:33:55;28.47;;;17.00;;
67595;SDS011;54410;48.694;8.934;2023-02-15T01:36:21;36.83;;;18.17;;
67595;SDS011;54410;48.694;8.934;2023-02-15T01:38:47;28.17;;;16.17;;
67595;SDS011;54410;48.694;8.934;2023-02-15T01:41:14;29.93;;;15.97;;
67595;SDS011;54410;48.694;8.934;2023-02-15T01:46:17;30.53;;;15.43;;
67595;SDS011;54410;48.694;8.934;2023-02-15T01:48:49;28.03;;;16.23;;
67595;SDS011;54410;48.694;8.934;2023-02-15T01:51:17;25.47;;;15.33;;
67595;SDS011;54410;48.694;8.934;2023-02-15T01:53:47;31.57;;;16.43;;
67595;SDS011;54410;48.694;8.934;2023-02-15T01:56:17;43.67;;;18.23;;
67595;SDS011;54410;48.694;8.934;2023-02-15T01:58:44;30.87;;;16.53;;
67595;SDS011;54410;48.694;8.934;2023-02-15T02:01:10;29.10;;;15.97;;
67595;SDS011;54410;48.694;8.934;2023-02-15T02:03:46;30.13;;;15.27;;
67595;SDS011;54410;48.694;8.934;2023-02-15T02:06:20;31.53;;;15.27;;
67595;SDS011;54410;48.694;8.934;2023-02-15T02:08:46;32.23;;;16.43;;
67595;SDS011;54410;48.694;8.934;2023-02-15T02:11:13;30.83;;;16.20;;
67595;SDS011;54410;48.694;8.934;2023-02-15T02:13:40;28.90;;;16.93;;
67595;SDS011;54410;48.694;8.934;2023-02-15T02:18:41;33.97;;;18.17;;
67595;SDS011;54410;48.694;8.934;2023-02-15T02:24:01;32.90;;;16.63;;
67595;SDS011;54410;48.694;8.934;2023-02-15T02:30:20;33.90;;;17.50;;
67595;SDS011;54410;48.694;8.934;2023-02-15T02:34:59;34.07;;;16.50;;
67595;SDS011;54410;48.694;8.934;2023-02-15T02:43:15;28.07;;;15.17;;
67595;SDS011;54410;48.694;8.934;2023-02-15T02:45:46;33.80;;;17.37;;
67595;SDS011;54410;48.694;8.934;2023-02-15T02:48:19;33.43;;;17.63;;
67595;SDS011;54410;48.694;8.934;2023-02-15T02:50:47;38.40;;;17.73;;
67595;SDS011;54410;48.694;8.934;2023-02-15T02:53:12;33.20;;;17.37;;
67595;SDS011;54410;48.694;8.934;2023-02-15T03:00:40;30.87;;;16.60;;
67595;SDS011;54410;48.694;8.934;2023-02-15T03:03:14;27.97;;;14.83;;
67595;SDS011;54410;48.694;8.934;2023-02-15T03:05:43;26.93;;;14.00;;
67595;SDS011;54410;48.694;8.934;2023-02-15T03:08:11;21.97;;;13.40;;
67595;SDS011;54410;48.694;8.934;2023-02-15T03:10:47;27.70;;;14.67;;
67595;SDS011;54410;48.694;8.934;2023-02-15T03:13:13;23.70;;;14.17;;
67595;SDS011;54410;48.694;8.934;2023-02-15T03:15:40;30.37;;;14.37;;
67595;SDS011;54410;48.694;8.934;2023-02-15T03:18:28;29.77;;;13.87;;
67595;SDS011;54410;48.694;8.934;2023-02-15T03:20:55;25.87;;;14.87;;
67595;SDS011;54410;48.694;8.934;2023-02-15T03:23:23;23.63;;;13.70;;
67595;SDS011;54410;48.694;8.934;2023-02-15T03:25:54;28.67;;;15.33;;
67595;SDS011;54410;48.694;8.934;2023-02-15T03:28:23;26.53;;;14.70;;
67595;SDS011;54410;48.694;8.934;2023-02-15T03:30:56;26.30;;;14.33;;
67595;SDS011;54410;48.694;8.934;2023-02-15T03:33:25;28.80;;;13.87;;
67595;SDS011;54410;48.694;8.934;2023-02-15T03:38:34;29.27;;;14.93;;
67595;SDS011;54410;48.694;8.934;2023-02-15T03:41:03;25.50;;;14.20;;
67595;SDS011;54410;48.694;8.934;2023-02-15T03:43:53;31.87;;;14.63;;
67595;SDS011;54410;48.694;8.934;2023-02-15T03:46:22;28.90;;;13.90;;
67595;SDS011;54410;48.694;8.934;2023-02-15T03:48:57;31.20;;;15.47;;
67595;SDS011;54410;48.694;8.934;2023-02-15T03:51:27;25.17;;;14.17;;
67595;SDS011;54410;48.694;8.934;2023-02-15T03:54:04;29.03;;;13.80;;
67595;SDS011;54410;48.694;8.934;2023-02-15T03:57:03;30.20;;;15.13;;
67595;SDS011;54410;48.694;8.934;2023-02-15T03:59:48;29.30;;;14.77;;
67595;SDS011;54410;48.694;8.934;2023-02-15T04:02:38;33.83;;;14.53;;
67595;SDS011;54410;48.694;8.934;2023-02-15T04:05:05;25.00;;;13.43;;
67595;SDS011;54410;48.694;8.934;2023-02-15T04:07:31;26.50;;;14.07;;
67595;SDS011;54410;48.694;8.934;2023-02-15T04:09:57;28.10;;;14.23;;
67595;SDS011;54410;48.694;8.934;2023-02-15T04:12:42;24.60;;;14.10;;
67595;SDS011;54410;48.694;8.934;2023-02-15T04:15:11;24.63;;;14.03;;
67595;SDS011;54410;48.694;8.934;2023-02-15T04:17:56;27.77;;;14.60;;
67595;SDS011;54410;48.694;8.934;2023-02-15T04:20:22;27.70;;;14.20;;
67595;SDS011;54410;48.694;8.934;2023-02-15T04:23:07;23.23;;;13.30;;
67595;SDS011;54410;48.694;8.934;2023-02-15T04:25:51;30.03;;;13.47;;
67595;SDS011;54410;48.694;8.934;2023-02-15T04:28:17;26.00;;;14.07;;
67595;SDS011;54410;48.694;8.934;2023-02-15T04:30:43;28.80;;;13.17;;
67595;SDS011;54410;48.694;8.934;2023-02-15T04:33:09;25.67;;;13.77;;
67595;SDS011;54410;48.694;8.934;2023-02-15T04:35:35;20.17;;;12.30;;
67595;SDS011;54410;48.694;8.934;2023-02-15T04:38:01;23.27;;;13.87;;
67595;SDS011;54410;48.694;8.934;2023-02-15T04:40:27;24.37;;;13.60;;
67595;SDS011;54410;48.694;8.934;2023-02-15T04:42:53;29.37;;;14.10;;
67595;SDS011;54410;48.694;8.934;2023-02-15T04:45:19;26.27;;;13.77;;
67595;SDS011;54410;48.694;8.934;2023-02-15T04:47:45;25.70;;;13.00;;
67595;SDS011;54410;48.694;8.934;2023-02-15T04:50:11;26.33;;;13.43;;
67595;SDS011;54410;48.694;8.934;2023-02-15T04:52:37;26.03;;;13.73;;
67595;SDS011;54410;48.694;8.934;2023-02-15T04:55:02;24.20;;;13.93;;
67595;SDS011;54410;48.694;8.934;2023-02-15T04:57:28;24.23;;;13.70;;
67595;SDS011;54410;48.694;8.934;2023-02-15T04:59:54;24.87;;;13.17;;
67595;SDS011;54410;48.694;8.934;2023-02-15T05:02:20;25.97;;;13.90;;
67595;SDS011;54410;48.694;8.934;2023-02-15T05:04:46;25.57;;;13.50;;
67595;SDS011;54410;48.694;8.934;2023-02-15T05:07:11;28.50;;;14.57;;
67595;SDS011;54410;48.694;8.934;2023-02-15T05:09:38;24.73;;;13.70;;
67595;SDS011;54410;48.694;8.934;2023-02-15T05:12:04;22.47;;;12.83;;
67595;SDS011;54410;48.694;8.934;2023-02-15T05:14:29;22.87;;;12.97;;
67595;SDS011;54410;48.694;8.934;2023-02-15T05:16:55;25.50;;;13.97;;
67595;SDS011;54410;48.694;8.934;2023-02-15T05:19:23;27.63;;;13.70;;
67595;SDS011;54410;48.694;8.934;2023-02-15T05:21:49;27.47;;;13.80;;
67595;SDS011;54410;48.694;8.934;2023-02-15T05:24:15;24.60;;;14.07;;
67595;SDS011;54410;48.694;8.934;2023-02-15T05:27:00;28.30;;;14.70;;
67595;SDS011;54410;48.694;8.934;2023-02-15T05:29:44;29.13;;;14.23;;
67595;SDS011;54410;48.694;8.934;2023-02-15T05:32:12;25.67;;;14.20;;
67595;SDS011;54410;48.694;8.934;2023-02-15T05:34:38;29.00;;;14.33;;
67595;SDS011;54410;48.694;8.934;2023-02-15T05:37:04;26.13;;;14.57;;
67595;SDS011;54410;48.694;8.934;2023-02-15T05:39:30;29.30;;;14.33;;
67595;SDS011;54410;48.694;8.934;2023-02-15T05:41:58;25.10;;;14.00;;
67595;SDS011;54410;48.694;8.934;2023-02-15T05:44:24;25.70;;;13.80;;
67595;SDS011;54410;48.694;8.934;2023-02-15T05:46:50;23.77;;;13.57;;
67595;SDS011;54410;48.694;8.934;2023-02-15T05:49:16;24.30;;;13.53;;
67595;SDS011;54410;48.694;8.934;2023-02-15T05:51:42;25.30;;;13.87;;
67595;SDS011;54410;48.694;8.934;2023-02-15T05:54:08;25.60;;;13.43;;
67595;SDS011;54410;48.694;8.934;2023-02-15T05:56:34;22.77;;;13.10;;
67595;SDS011;54410;48.694;8.934;2023-02-15T05:59:00;26.93;;;13.70;;
67595;SDS011;54410;48.694;8.934;2023-02-15T06:01:26;25.23;;;13.43;;
67595;SDS011;54410;48.694;8.934;2023-02-15T06:03:52;23.97;;;13.93;;
67595;SDS011;54410;48.694;8.934;2023-02-15T06:06:17;27.97;;;15.33;;
67595;SDS011;54410;48.694;8.934;2023-02-15T06:08:43;28.37;;;14.23;;
67595;SDS011;54410;48.694;8.934;2023-02-15T06:11:09;24.60;;;12.73;;
67595;SDS011;54410;48.694;8.934;2023-02-15T06:13:35;26.53;;;13.37;;
67595;SDS011;54410;48.694;8.934;2023-02-15T06:16:01;20.27;;;12.13;;
67595;SDS011;54410;48.694;8.934;2023-02-15T06:18:27;24.97;;;12.90;;
67595;SDS011;54410;48.694;8.934;2023-02-15T06:20:53;29.70;;;13.90;;
67595;SDS011;54410;48.694;8.934;2023-02-15T06:23:19;23.77;;;12.87;;
67595;SDS011;54410;48.694;8.934;2023-02-15T06:25:45;24.47;;;14.83;;
67595;SDS011;54410;48.694;8.934;2023-02-15T06:28:11;25.40;;;13.30;;
67595;SDS011;54410;48.694;8.934;2023-02-15T06:30:37;24.07;;;13.20;;
67595;SDS011;54410;48.694;8.934;2023-02-15T06:33:03;23.93;;;13.23;;
67595;SDS011;54410;48.694;8.934;2023-02-15T06:35:29;29.20;;;14.13;;
67595;SDS011;54410;48.694;8.934;2023-02-15T06:37:55;28.00;;;14.23;;
67595;SDS011;54410;48.694;8.934;2023-02-15T06:40:21;21.50;;;13.27;;
67595;SDS011;54410;48.694;8.934;2023-02-15T06:42:47;28.27;;;14.17;;
67595;SDS011;54410;48.694;8.934;2023-02-15T06:45:13;23.90;;;14.40;;
67595;SDS011;54410;48.694;8.934;2023-02-15T06:47:39;25.20;;;14.67;;
67595;SDS011;54410;48.694;8.934;2023-02-15T06:50:06;26.20;;;14.57;;
67595;SDS011;54410;48.694;8.934;2023-02-15T06:52:32;31.27;;;14.20;;
67595;SDS011;54410;48.694;8.934;2023-02-15T06:54:58;23.67;;;13.83;;
67595;SDS011;54410;48.694;8.934;2023-02-15T06:57:24;25.53;;;14.57;;
67595;SDS011;54410;48.694;8.934;2023-02-15T06:59:50;25.93;;;15.13;;
67595;SDS011;54410;48.694;8.934;2023-02-15T07:02:17;28.57;;;15.90;;
67595;SDS011;54410;48.694;8.934;2023-02-15T07:04:43;37.30;;;20.50;;
67595;SDS011;54410;48.694;8.934;2023-02-15T07:07:09;35.83;;;18.37;;
67595;SDS011;54410;48.694;8.934;2023-02-15T07:09:36;30.50;;;16.70;;
67595;SDS011;54410;48.694;8.934;2023-02-15T07:12:02;31.90;;;16.77;;
67595;SDS011;54410;48.694;8.934;2023-02-15T07:14:46;35.20;;;17.27;;
67595;SDS011;54410;48.694;8.934;2023-02-15T07:17:12;35.30;;;17.60;;
67595;SDS011;54410;48.694;8.934;2023-02-15T07:19:37;34.63;;;18.00;;
67595;SDS011;54410;48.694;8.934;2023-02-15T07:22:03;31.73;;;17.27;;
67595;SDS011;54410;48.694;8.934;2023-02-15T07:24:30;38.70;;;18.70;;
67595;SDS011;54410;48.694;8.934;2023-02-15T07:26:56;33.40;;;18.53;;
67595;SDS011;54410;48.694;8.934;2023-02-15T07:29:22;26.37;;;15.47;;
67595;SDS011;54410;48.694;8.934;2023-02-15T07:31:48;23.37;;;14.33;;
67595;SDS011;54410;48.694;8.934;2023-02-15T07:34:15;22.80;;;14.17;;
67595;SDS011;54410;48.694;8.934;2023-02-15T07:36:41;23.77;;;15.57;;
67595;SDS011;54410;48.694;8.934;2023-02-15T07:39:09;23.47;;;14.70;;
67595;SDS011;54410;48.694;8.934;2023-02-15T07:41:35;22.97;;;13.90;;
67595;SDS011;54410;48.694;8.934;2023-02-15T07:44:00;29.67;;;16.90;;
67595;SDS011;54410;48.694;8.934;2023-02-15T07:46:26;21.93;;;14.90;;
67595;SDS011;54410;48.694;8.934;2023-02-15T07:48:53;13.30;;;9.90;;
67595;SDS011;54410;48.694;8.934;2023-02-15T07:51:18;10.73;;;8.27;;
67595;SDS011;54410;48.694;8.934;2023-02-15T07:53:44;11.50;;;8.90;;
67595;SDS011;54410;48.694;8.934;2023-02-15T07:56:11;13.53;;;10.27;;
67595;SDS011;54410;48.694;8.934;2023-02-15T07:58:38;13.88;;;10.48;;
67595;SDS011;54410;48.694;8.934;2023-02-15T08:01:16;14.73;;;11.70;;
67595;SDS011;54410;48.694;8.934;2023-02-15T08:03:45;15.85;;;11.48;;
67595;SDS011;54410;48.694;8.934;2023-02-15T08:06:11;16.52;;;11.60;;
67595;SDS011;54410;48.694;8.934;2023-02-15T08:08:38;16.92;;;13.45;;
67595;SDS011;54410;48.694;8.934;2023-02-15T08:11:06;17.65;;;14.00;;
67595;SDS011;54410;48.694;8.934;2023-02-15T08:13:57;20.70;;;14.43;;
67595;SDS011;54410;48.694;8.934;2023-02-15T08:16:31;15.60;;;12.75;;
67595;SDS011;54410;48.694;8.934;2023-02-15T08:18:58;17.10;;;12.93;;
67595;SDS011;54410;48.694;8.934;2023-02-15T08:21:26;15.13;;;11.45;;
67595;SDS011;54410;48.694;8.934;2023-02-15T08:23:53;14.98;;;11.82;;
67595;SDS011;54410;48.694;8.934;2023-02-15T08:26:19;12.18;;;9.98;;
67595;SDS011;54410;48.694;8.934;2023-02-15T08:28:45;12.98;;;10.13;;
67595;SDS011;54410;48.694;8.934;2023-02-15T08:31:12;13.70;;;10.23;;
67595;SDS011;54410;48.694;8.934;2023-02-15T08:33:39;12.90;;;10.55;;
67595;SDS011;54410;48.694;8.934;2023-02-15T08:36:10;11.75;;;9.15;;
67595;SDS011;54410;48.694;8.934;2023-02-15T08:38:36;10.85;;;8.38;;
67595;SDS011;54410;48.694;8.934;2023-02-15T08:41:09;10.07;;;8.35;;
67595;SDS011;54410;48.694;8.934;2023-02-15T08:43:52;12.95;;;8.25;;
67595;SDS011;54410;48.694;8.934;2023-02-15T08:46:19;12.07;;;9.18;;
67595;SDS011;54410;48.694;8.934;2023-02-15T08:48:45;11.23;;;8.50;;
67595;SDS011;54410;48.694;8.934;2023-02-15T08:51:13;11.77;;;7.97;;
67595;SDS011;54410;48.694;8.934;2023-02-15T08:53:59;10.18;;;7.60;;
67595;SDS011;54410;48.694;8.934;2023-02-15T08:56:27;7.57;;;6.70;;
67595;SDS011;54410;48.694;8.934;2023-02-15T08:58:53;9.30;;;7.30;;
67595;SDS011;54410;48.694;8.934;2023-02-15T09:01:20;8.63;;;7.38;;
67595;SDS011;54410;48.694;8.934;2023-02-15T09:03:51;10.32;;;7.40;;
67595;SDS011;54410;48.694;8.934;2023-02-15T09:06:20;10.25;;;6.97;;
67595;SDS011;54410;48.694;8.934;2023-02-15T09:08:47;8.52;;;6.22;;
67595;SDS011;54410;48.694;8.934;2023-02-15T09:11:14;8.38;;;6.53;;
67595;SDS011;54410;48.694;8.934;2023-02-15T09:13:47;10.55;;;7.10;;
67595;SDS011;54410;48.694;8.934;2023-02-15T09:16:13;8.35;;;6.43;;
67595;SDS011;54410;48.694;8.934;2023-02-15T09:18:42;8.63;;;6.45;;
67595;SDS011;54410;48.694;8.934;2023-02-15T09:21:15;11.63;;;7.07;;
67595;SDS011;54410;48.694;8.934;2023-02-15T09:23:42;13.07;;;7.78;;
67595;SDS011;54410;48.694;8.934;2023-02-15T09:26:10;14.15;;;6.47;;
67595;SDS011;54410;48.694;8.934;2023-02-15T09:28:36;9.10;;;5.45;;
67595;SDS011;54410;48.694;8.934;2023-02-15T09:33:35;8.05;;;6.22;;
67595;SDS011;54410;48.694;8.934;2023-02-15T09:36:01;8.52;;;6.40;;
67595;SDS011;54410;48.694;8.934;2023-02-15T09:38:28;8.50;;;5.97;;
67595;SDS011;54410;48.694;8.934;2023-02-15T09:41:07;8.73;;;6.25;;
67595;SDS011;54410;48.694;8.934;2023-02-15T09:43:38;8.35;;;6.32;;
67595;SDS011;54410;48.694;8.934;2023-02-15T09:46:13;13.70;;;6.95;;
67595;SDS011;54410;48.694;8.934;2023-02-15T09:48:52;6.90;;;5.65;;
67595;SDS011;54410;48.694;8.934;2023-02-15T09:56:51;6.25;;;4.55;;
67595;SDS011;54410;48.694;8.934;2023-02-15T10:12:43;7.00;;;3.88;;
67595;SDS011;54410;48.694;8.934;2023-02-15T10:15:22;6.10;;;4.57;;
67595;SDS011;54410;48.694;8.934;2023-02-15T10:18:00;4.78;;;3.85;;
67595;SDS011;54410;48.694;8.934;2023-02-15T10:25:46;5.32;;;4.43;;
67595;SDS011;54410;48.694;8.934;2023-02-15T10:28:23;8.68;;;4.90;;
67595;SDS011;54410;48.694;8.934;2023-02-15T10:30:50;9.23;;;5.45;;
67595;SDS011;54410;48.694;8.934;2023-02-15T10:38:39;7.82;;;4.85;;
67595;SDS011;54410;48.694;8.934;2023-02-15T10:49:26;6.40;;;5.20;;
67595;SDS011;54410;48.694;8.934;2023-02-15T10:54:49;10.05;;;5.13;;
67595;SDS011;54410;48.694;8.934;2023-02-15T11:07:54;7.13;;;5.00;;
67595;SDS011;54410;48.694;8.934;2023-02-15T11:12:53;7.80;;;5.32;;
67595;SDS011;54410;48.694;8.934;2023-02-15T11:15:31;6.00;;;4.72;;
67595;SDS011;54410;48.694;8.934;2023-02-15T11:23:32;6.03;;;4.47;;
67595;SDS011;54410;48.694;8.934;2023-02-15T11:26:00;7.55;;;4.35;;
67595;SDS011;54410;48.694;8.934;2023-02-15T11:28:34;7.78;;;4.70;;
67595;SDS011;54410;48.694;8.934;2023-02-15T11:31:11;6.40;;;4.85;;
67595;SDS011;54410;48.694;8.934;2023-02-15T11:33:42;5.93;;;3.95;;
67595;SDS011;54410;48.694;8.934;2023-02-15T11:36:12;6.57;;;4.38;;
67595;SDS011;54410;48.694;8.934;2023-02-15T11:38:41;8.57;;;4.70;;
67595;SDS011;54410;48.694;8.934;2023-02-15T11:41:09;9.30;;;4.80;;
67595;SDS011;54410;48.694;8.934;2023-02-15T11:43:38;4.82;;;4.30;;
67595;SDS011;54410;48.694;8.934;2023-02-15T11:46:05;5.45;;;4.15;;
67595;SDS011;54410;48.694;8.934;2023-02-15T11:48:33;6.97;;;4.75;;
67595;SDS011;54410;48.694;8.934;2023-02-15T11:50:59;4.47;;;3.97;;
67595;SDS011;54410;48.694;8.934;2023-02-15T11:53:25;5.50;;;4.38;;
67595;SDS011;54410;48.694;8.934;2023-02-15T11:55:54;5.68;;;4.10;;
67595;SDS011;54410;48.694;8.934;2023-02-15T11:58:33;6.60;;;4.00;;
67595;SDS011;54410;48.694;8.934;2023-02-15T12:01:23;6.93;;;4.22;;
67595;SDS011;54410;48.694;8.934;2023-02-15T12:03:51;7.28;;;4.13;;
67595;SDS011;54410;48.694;8.934;2023-02-15T12:06:22;5.85;;;4.63;;
67595;SDS011;54410;48.694;8.934;2023-02-15T12:08:54;5.85;;;3.58;;
67595;SDS011;54410;48.694;8.934;2023-02-15T12:11:40;5.80;;;3.75;;
67595;SDS011;54410;48.694;8.934;2023-02-15T12:14:13;7.25;;;4.28;;
67595;SDS011;54410;48.694;8.934;2023-02-15T12:16:44;9.15;;;4.07;;
67595;SDS011;54410;48.694;8.934;2023-02-15T12:19:13;6.15;;;3.67;;
67595;SDS011;54410;48.694;8.934;2023-02-15T12:21:43;4.55;;;3.80;;
67595;SDS011;54410;48.694;8.934;2023-02-15T12:24:17;9.82;;;4.50;;
67595;SDS011;54410;48.694;8.934;2023-02-15T12:26:43;11.32;;;4.05;;
67595;SDS011;54410;48.694;8.934;2023-02-15T12:29:15;6.43;;;3.38;;
67595;SDS011;54410;48.694;8.934;2023-02-15T12:31:45;4.70;;;3.10;;
67595;SDS011;54410;48.694;8.934;2023-02-15T12:34:16;3.85;;;2.90;;
67595;SDS011;54410;48.694;8.934;2023-02-15T12:36:46;6.90;;;3.92;;
67595;SDS011;54410;48.694;8.934;2023-02-15T12:41:49;5.00;;;2.67;;
67595;SDS011;54410;48.694;8.934;2023-02-15T12:46:55;3.55;;;2.75;;
67595;SDS011;54410;48.694;8.934;2023-02-15T12:49:26;6.97;;;2.38;;
67595;SDS011;54410;48.694;8.934;2023-02-15T12:51:53;3.63;;;2.38;;
67595;SDS011;54410;48.694;8.934;2023-02-15T12:56:55;2.85;;;1.95;;
67595;SDS011;54410;48.694;8.934;2023-02-15T12:59:24;2.45;;;1.92;;
67595;SDS011;54410;48.694;8.934;2023-02-15T13:01:51;7.80;;;2.05;;
67595;SDS011;54410;48.694;8.934;2023-02-15T13:04:28;4.75;;;2.60;;
67595;SDS011;54410;48.694;8.934;2023-02-15T13:06:56;2.75;;;2.22;;
67595;SDS011;54410;48.694;8.934;2023-02-15T13:11:56;3.00;;;2.00;;
67595;SDS011;54410;48.694;8.934;2023-02-15T13:14:29;3.28;;;2.05;;
67595;SDS011;54410;48.694;8.934;2023-02-15T13:16:57;3.95;;;2.10;;
67595;SDS011;54410;48.694;8.934;2023-02-15T13:22:02;3.42;;;2.40;;
67595;SDS011;54410;48.694;8.934;2023-02-15T13:24:46;3.00;;;2.15;;
67595;SDS011;54410;48.694;8.934;2023-02-15T13:27:17;5.00;;;2.22;;
67595;SDS011;54410;48.694;8.934;2023-02-15T13:29:45;5.35;;;2.70;;
67595;SDS011;54410;48.694;8.934;2023-02-15T13:32:55;4.57;;;2.47;;
67595;SDS011;54410;48.694;8.934;2023-02-15T13:35:03;3.00;;;2.10;;
67595;SDS011;54410;48.694;8.934;2023-02-15T13:40:55;4.47;;;2.60;;
67595;SDS011;54410;48.694;8.934;2023-02-15T13:48:37;4.75;;;2.85;;
67595;SDS011;54410;48.694;8.934;2023-02-15T13:51:13;4.07;;;3.17;;
67595;SDS011;54410;48.694;8.934;2023-02-15T14:01:45;3.33;;;2.90;;
67595;SDS011;54410;48.694;8.934;2023-02-15T14:04:25;3.25;;;2.90;;
67595;SDS011;54410;48.694;8.934;2023-02-15T14:07:16;4.57;;;3.65;;
67595;SDS011;54410;48.694;8.934;2023-02-15T14:12:22;5.78;;;3.88;;
67595;SDS011;54410;48.694;8.934;2023-02-15T14:20:20;5.53;;;3.97;;
67595;SDS011;54410;48.694;8.934;2023-02-15T14:22:50;5.60;;;4.30;;
67595;SDS011;54410;48.694;8.934;2023-02-15T14:27:54;8.60;;;4.85;;
67595;SDS011;54410;48.694;8.934;2023-02-15T14:30:26;7.60;;;4.90;;
67595;SDS011;54410;48.694;8.934;2023-02-15T14:33:00;7.32;;;4.80;;
67595;SDS011;54410;48.694;8.934;2023-02-15T14:35:29;6.65;;;4.88;;
67595;SDS011;54410;48.694;8.934;2023-02-15T14:48:52;6.18;;;4.75;;
67595;SDS011;54410;48.694;8.934;2023-02-15T14:54:03;8.57;;;5.28;;
67595;SDS011;54410;48.694;8.934;2023-02-15T14:56:29;6.03;;;4.45;;
67595;SDS011;54410;48.694;8.934;2023-02-15T14:58:56;8.00;;;4.72;;
67595;SDS011;54410;48.694;8.934;2023-02-15T15:01:30;8.20;;;5.13;;
67595;SDS011;54410;48.694;8.934;2023-02-15T15:04:03;6.75;;;5.03;;
67595;SDS011;54410;48.694;8.934;2023-02-15T15:06:31;8.15;;;4.95;;
67595;SDS011;54410;48.694;8.934;2023-02-15T15:09:08;10.40;;;5.25;;
67595;SDS011;54410;48.694;8.934;2023-02-15T15:11:48;8.52;;;5.00;;
67595;SDS011;54410;48.694;8.934;2023-02-15T15:14:48;9.90;;;5.80;;
67595;SDS011;54410;48.694;8.934;2023-02-15T15:17:08;12.45;;;5.75;;
67595;SDS011;54410;48.694;8.934;2023-02-15T15:22:18;23.85;;;11.90;;
67595;SDS011;54410;48.694;8.934;2023-02-15T15:24:46;12.05;;;8.10;;
67595;SDS011;54410;48.694;8.934;2023-02-15T15:29:57;12.00;;;7.35;;
67595;SDS011;54410;48.694;8.934;2023-02-15T15:32:27;10.15;;;6.60;;
67595;SDS011;54410;48.694;8.934;2023-02-15T15:35:08;10.15;;;6.57;;
67595;SDS011;54410;48.694;8.934;2023-02-15T15:42:46;15.68;;;10.10;;
67595;SDS011;54410;48.694;8.934;2023-02-15T15:47:52;16.05;;;11.40;;
67595;SDS011;54410;48.694;8.934;2023-02-15T15:50:31;20.25;;;10.77;;
67595;SDS011;54410;48.694;8.934;2023-02-15T15:52:58;17.30;;;10.55;;
67595;SDS011;54410;48.694;8.934;2023-02-15T15:55:25;18.60;;;10.93;;
67595;SDS011;54410;48.694;8.934;2023-02-15T15:58:02;20.10;;;10.35;;
67595;SDS011;54410;48.694;8.934;2023-02-15T16:02:58;16.08;;;10.63;;
67595;SDS011;54410;48.694;8.934;2023-02-15T16:05:24;14.32;;;10.65;;
67595;SDS011;54410;48.694;8.934;2023-02-15T16:07:50;14.10;;;10.18;;
67595;SDS011;54410;48.694;8.934;2023-02-15T16:10:23;12.73;;;9.10;;
67595;SDS011;54410;48.694;8.934;2023-02-15T16:12:53;14.27;;;9.95;;
67595;SDS011;54410;48.694;8.934;2023-02-15T16:15:24;15.45;;;10.23;;
67595;SDS011;54410;48.694;8.934;2023-02-15T16:17:55;14.70;;;9.68;;
67595;SDS011;54410;48.694;8.934;2023-02-15T16:20:35;13.48;;;9.63;;
67595;SDS011;54410;48.694;8.934;2023-02-15T16:28:15;16.60;;;10.32;;
67595;SDS011;54410;48.694;8.934;2023-02-15T16:30:43;13.93;;;10.00;;
67595;SDS011;54410;48.694;8.934;2023-02-15T16:33:10;17.77;;;10.68;;
67595;SDS011;54410;48.694;8.934;2023-02-15T16:35:38;17.27;;;11.18;;
67595;SDS011;54410;48.694;8.934;2023-02-15T16:38:05;15.82;;;10.68;;
67595;SDS011;54410;48.694;8.934;2023-02-15T16:40:46;18.08;;;11.77;;
67595;SDS011;54410;48.694;8.934;2023-02-15T16:43:15;14.88;;;11.25;;
67595;SDS011;54410;48.694;8.934;2023-02-15T16:45:42;17.83;;;11.40;;
67595;SDS011;54410;48.694;8.934;2023-02-15T16:48:12;22.65;;;12.15;;
67595;SDS011;54410;48.694;8.934;2023-02-15T16:50:40;16.63;;;11.05;;
67595;SDS011;54410;48.694;8.934;2023-02-15T16:53:14;17.05;;;10.75;;
67595;SDS011;54410;48.694;8.934;2023-02-15T16:55:42;16.45;;;10.90;;
67595;SDS011;54410;48.694;8.934;2023-02-15T16:58:13;15.80;;;11.43;;
67595;SDS011;54410;48.694;8.934;2023-02-15T17:00:39;16.35;;;9.65;;
67595;SDS011;54410;48.694;8.934;2023-02-15T17:05:45;15.57;;;10.00;;
67595;SDS011;54410;48.694;8.934;2023-02-15T17:10:41;13.60;;;9.57;;
67595;SDS011;54410;48.694;8.934;2023-02-15T17:13:31;13.53;;;9.40;;
67595;SDS011;54410;48.694;8.934;2023-02-15T17:18:29;13.00;;;9.30;;
67595;SDS011;54410;48.694;8.934;2023-02-15T17:20:57;13.83;;;9.93;;
67595;SDS011;54410;48.694;8.934;2023-02-15T17:23:34;13.03;;;9.83;;
67595;SDS011;54410;48.694;8.934;2023-02-15T17:26:10;20.43;;;12.50;;
67595;SDS011;54410;48.694;8.934;2023-02-15T17:28:37;22.87;;;16.37;;
67595;SDS011;54410;48.694;8.934;2023-02-15T17:31:06;20.03;;;14.03;;
67595;SDS011;54410;48.694;8.934;2023-02-15T17:38:37;16.83;;;11.50;;
67595;SDS011;54410;48.694;8.934;2023-02-15T17:41:03;16.50;;;10.87;;